Lookout, Wyoming
Current Conditions -  °F | °C
As of 5:53 PM on Tuesday 21 Oct 2014 (Local Time) from KLAR Reporting Station
Clear Clear  
Wind Chill: 12°   Ceiling: Unl
Heat Index: 12°   Visibility: 10mi
Dew Point:   Wind: 10mph
Humidity: 52%   Direction: 240°WSW
Pressure: 30.03"   Gusts: NA
Location:  41.5395°N, 105.861°W
Report Text: KLAR 212353Z AUTO 24009KT 10SM CLR 12/02 A3003 RMK AO2 SLP114 60000 T01170022 10183 20117 55001
Loading
Personal Weather Stations






























Interactive Weather Map
Tropical Storm Tracking
New forecast layout! Learn more

10-Day Weather Forecast

Advertisements
Track Severe Weather on mobile